sensor_id;sensor_type;location;lat;lon;timestamp;P1;durP1;ratioP1;P2;durP2;ratioP2
10565;SDS011;5331;48.148;16.326;2022-08-21T00:01:52;3.75;;;3.47;;
10565;SDS011;5331;48.148;16.326;2022-08-21T00:04:19;4.00;;;3.70;;
10565;SDS011;5331;48.148;16.326;2022-08-21T00:06:47;3.92;;;3.63;;
10565;SDS011;5331;48.148;16.326;2022-08-21T00:09:15;3.88;;;3.63;;
10565;SDS011;5331;48.148;16.326;2022-08-21T00:11:42;3.60;;;3.40;;
10565;SDS011;5331;48.148;16.326;2022-08-21T00:14:10;4.40;;;4.10;;
10565;SDS011;5331;48.148;16.326;2022-08-21T00:16:37;3.80;;;3.60;;
10565;SDS011;5331;48.148;16.326;2022-08-21T00:19:04;4.05;;;3.75;;
10565;SDS011;5331;48.148;16.326;2022-08-21T00:21:31;3.55;;;3.35;;
10565;SDS011;5331;48.148;16.326;2022-08-21T00:23:59;3.75;;;3.45;;
10565;SDS011;5331;48.148;16.326;2022-08-21T00:26:27;4.20;;;3.90;;
10565;SDS011;5331;48.148;16.326;2022-08-21T00:28:54;4.15;;;3.85;;
10565;SDS011;5331;48.148;16.326;2022-08-21T00:31:21;4.25;;;3.95;;
10565;SDS011;5331;48.148;16.326;2022-08-21T00:33:48;4.25;;;3.53;;
10565;SDS011;5331;48.148;16.326;2022-08-21T00:36:15;3.88;;;3.58;;
10565;SDS011;5331;48.148;16.326;2022-08-21T00:38:42;4.05;;;3.85;;
10565;SDS011;5331;48.148;16.326;2022-08-21T00:41:10;4.20;;;3.90;;
10565;SDS011;5331;48.148;16.326;2022-08-21T00:43:39;4.78;;;4.45;;
10565;SDS011;5331;48.148;16.326;2022-08-21T00:46:06;4.43;;;4.13;;
10565;SDS011;5331;48.148;16.326;2022-08-21T00:48:33;4.18;;;3.88;;
10565;SDS011;5331;48.148;16.326;2022-08-21T00:51:04;4.32;;;4.03;;
10565;SDS011;5331;48.148;16.326;2022-08-21T00:53:34;4.70;;;4.30;;
10565;SDS011;5331;48.148;16.326;2022-08-21T00:56:04;4.82;;;4.50;;
10565;SDS011;5331;48.148;16.326;2022-08-21T00:58:33;4.55;;;4.25;;
10565;SDS011;5331;48.148;16.326;2022-08-21T01:01:03;4.97;;;4.57;;
10565;SDS011;5331;48.148;16.326;2022-08-21T01:03:31;5.15;;;4.65;;
10565;SDS011;5331;48.148;16.326;2022-08-21T01:05:58;4.40;;;4.10;;
10565;SDS011;5331;48.148;16.326;2022-08-21T01:08:25;4.68;;;4.28;;
10565;SDS011;5331;48.148;16.326;2022-08-21T01:10:54;4.97;;;4.57;;
10565;SDS011;5331;48.148;16.326;2022-08-21T01:13:21;4.85;;;4.45;;
10565;SDS011;5331;48.148;16.326;2022-08-21T01:15:50;4.60;;;4.25;;
10565;SDS011;5331;48.148;16.326;2022-08-21T01:18:21;4.75;;;4.45;;
10565;SDS011;5331;48.148;16.326;2022-08-21T01:21:04;4.85;;;4.45;;
10565;SDS011;5331;48.148;16.326;2022-08-21T01:23:33;5.20;;;4.80;;
10565;SDS011;5331;48.148;16.326;2022-08-21T01:26:01;4.72;;;4.32;;
10565;SDS011;5331;48.148;16.326;2022-08-21T01:28:28;4.68;;;4.38;;
10565;SDS011;5331;48.148;16.326;2022-08-21T01:31:00;5.15;;;4.82;;
10565;SDS011;5331;48.148;16.326;2022-08-21T01:33:29;5.25;;;4.85;;
10565;SDS011;5331;48.148;16.326;2022-08-21T01:35:56;5.22;;;4.82;;
10565;SDS011;5331;48.148;16.326;2022-08-21T01:38:25;5.35;;;4.88;;
10565;SDS011;5331;48.148;16.326;2022-08-21T01:40:52;5.53;;;5.13;;
10565;SDS011;5331;48.148;16.326;2022-08-21T01:43:19;5.18;;;4.78;;
10565;SDS011;5331;48.148;16.326;2022-08-21T01:45:46;4.95;;;4.60;;
10565;SDS011;5331;48.148;16.326;2022-08-21T01:48:13;5.20;;;4.80;;
10565;SDS011;5331;48.148;16.326;2022-08-21T01:50:40;5.50;;;5.10;;
10565;SDS011;5331;48.148;16.326;2022-08-21T01:53:06;5.45;;;5.05;;
10565;SDS011;5331;48.148;16.326;2022-08-21T01:55:35;5.13;;;4.72;;
10565;SDS011;5331;48.148;16.326;2022-08-21T01:58:02;5.43;;;5.03;;
10565;SDS011;5331;48.148;16.326;2022-08-21T02:00:29;5.00;;;4.60;;
10565;SDS011;5331;48.148;16.326;2022-08-21T02:02:55;5.43;;;5.03;;
10565;SDS011;5331;48.148;16.326;2022-08-21T02:05:23;5.60;;;5.20;;
10565;SDS011;5331;48.148;16.326;2022-08-21T02:07:52;5.95;;;4.95;;
10565;SDS011;5331;48.148;16.326;2022-08-21T02:10:22;5.50;;;5.00;;
10565;SDS011;5331;48.148;16.326;2022-08-21T02:12:53;5.75;;;5.03;;
10565;SDS011;5331;48.148;16.326;2022-08-21T02:15:21;6.43;;;5.82;;
10565;SDS011;5331;48.148;16.326;2022-08-21T02:17:49;5.38;;;4.93;;
10565;SDS011;5331;48.148;16.326;2022-08-21T02:20:18;5.05;;;4.72;;
10565;SDS011;5331;48.148;16.326;2022-08-21T02:22:47;5.13;;;4.72;;
10565;SDS011;5331;48.148;16.326;2022-08-21T02:25:14;5.03;;;4.57;;
10565;SDS011;5331;48.148;16.326;2022-08-21T02:27:42;5.03;;;4.63;;
10565;SDS011;5331;48.148;16.326;2022-08-21T02:30:14;5.38;;;4.90;;
10565;SDS011;5331;48.148;16.326;2022-08-21T02:32:42;5.97;;;5.57;;
10565;SDS011;5331;48.148;16.326;2022-08-21T02:35:10;6.40;;;5.90;;
10565;SDS011;5331;48.148;16.326;2022-08-21T02:37:44;7.15;;;6.55;;
10565;SDS011;5331;48.148;16.326;2022-08-21T02:40:13;7.18;;;6.57;;
10565;SDS011;5331;48.148;16.326;2022-08-21T02:42:41;7.70;;;6.88;;
10565;SDS011;5331;48.148;16.326;2022-08-21T02:45:09;7.00;;;6.45;;
10565;SDS011;5331;48.148;16.326;2022-08-21T02:47:37;7.38;;;6.70;;
10565;SDS011;5331;48.148;16.326;2022-08-21T02:50:05;7.40;;;6.80;;
10565;SDS011;5331;48.148;16.326;2022-08-21T02:52:33;7.40;;;6.80;;
10565;SDS011;5331;48.148;16.326;2022-08-21T02:55:01;8.23;;;7.53;;
10565;SDS011;5331;48.148;16.326;2022-08-21T02:57:29;7.88;;;7.07;;
10565;SDS011;5331;48.148;16.326;2022-08-21T02:59:57;7.68;;;6.97;;
10565;SDS011;5331;48.148;16.326;2022-08-21T03:02:24;6.97;;;6.38;;
10565;SDS011;5331;48.148;16.326;2022-08-21T03:04:53;6.70;;;6.15;;
10565;SDS011;5331;48.148;16.326;2022-08-21T03:07:20;7.10;;;6.40;;
10565;SDS011;5331;48.148;16.326;2022-08-21T03:09:47;6.03;;;5.45;;
10565;SDS011;5331;48.148;16.326;2022-08-21T03:12:14;5.15;;;4.75;;
10565;SDS011;5331;48.148;16.326;2022-08-21T03:14:41;4.78;;;4.30;;
10565;SDS011;5331;48.148;16.326;2022-08-21T03:17:08;4.30;;;3.95;;
10565;SDS011;5331;48.148;16.326;2022-08-21T03:19:35;4.30;;;4.00;;
10565;SDS011;5331;48.148;16.326;2022-08-21T03:22:03;4.38;;;3.97;;
10565;SDS011;5331;48.148;16.326;2022-08-21T03:24:31;4.03;;;3.72;;
10565;SDS011;5331;48.148;16.326;2022-08-21T03:26:58;4.13;;;3.83;;
10565;SDS011;5331;48.148;16.326;2022-08-21T03:29:24;4.00;;;3.75;;
10565;SDS011;5331;48.148;16.326;2022-08-21T03:31:52;4.60;;;4.30;;
10565;SDS011;5331;48.148;16.326;2022-08-21T03:34:19;4.35;;;4.05;;
10565;SDS011;5331;48.148;16.326;2022-08-21T03:36:46;4.25;;;3.95;;
10565;SDS011;5331;48.148;16.326;2022-08-21T03:39:15;3.90;;;3.70;;
10565;SDS011;5331;48.148;16.326;2022-08-21T03:41:42;3.75;;;3.45;;
10565;SDS011;5331;48.148;16.326;2022-08-21T03:44:10;4.00;;;3.70;;
10565;SDS011;5331;48.148;16.326;2022-08-21T03:46:37;3.90;;;3.60;;
10565;SDS011;5331;48.148;16.326;2022-08-21T03:49:05;3.33;;;3.13;;
10565;SDS011;5331;48.148;16.326;2022-08-21T03:51:31;3.40;;;3.20;;
10565;SDS011;5331;48.148;16.326;2022-08-21T03:54:00;3.38;;;3.17;;
10565;SDS011;5331;48.148;16.326;2022-08-21T03:56:28;3.17;;;2.97;;
10565;SDS011;5331;48.148;16.326;2022-08-21T03:58:56;3.25;;;3.05;;
10565;SDS011;5331;48.148;16.326;2022-08-21T04:01:23;2.67;;;2.58;;
10565;SDS011;5331;48.148;16.326;2022-08-21T04:03:50;2.40;;;2.30;;
10565;SDS011;5331;48.148;16.326;2022-08-21T04:06:17;2.50;;;2.40;;
10565;SDS011;5331;48.148;16.326;2022-08-21T04:08:43;2.70;;;2.55;;
10565;SDS011;5331;48.148;16.326;2022-08-21T04:11:10;2.72;;;2.53;;
10565;SDS011;5331;48.148;16.326;2022-08-21T04:13:39;2.53;;;2.42;;
10565;SDS011;5331;48.148;16.326;2022-08-21T04:16:06;2.17;;;2.05;;
10565;SDS011;5331;48.148;16.326;2022-08-21T04:18:33;2.30;;;2.20;;
10565;SDS011;5331;48.148;16.326;2022-08-21T04:21:01;2.20;;;2.10;;
10565;SDS011;5331;48.148;16.326;2022-08-21T04:23:29;2.00;;;1.90;;
10565;SDS011;5331;48.148;16.326;2022-08-21T04:25:56;2.20;;;2.10;;
10565;SDS011;5331;48.148;16.326;2022-08-21T04:28:24;2.58;;;2.40;;
10565;SDS011;5331;48.148;16.326;2022-08-21T04:30:54;2.10;;;2.00;;
10565;SDS011;5331;48.148;16.326;2022-08-21T04:33:22;2.30;;;2.20;;
10565;SDS011;5331;48.148;16.326;2022-08-21T04:35:49;2.42;;;2.33;;
10565;SDS011;5331;48.148;16.326;2022-08-21T04:38:17;2.50;;;2.40;;
10565;SDS011;5331;48.148;16.326;2022-08-21T04:40:44;2.30;;;2.20;;
10565;SDS011;5331;48.148;16.326;2022-08-21T04:43:11;2.67;;;2.50;;
10565;SDS011;5331;48.148;16.326;2022-08-21T04:45:39;2.60;;;2.50;;
10565;SDS011;5331;48.148;16.326;2022-08-21T04:48:10;2.75;;;2.55;;
10565;SDS011;5331;48.148;16.326;2022-08-21T04:50:39;2.90;;;2.60;;
10565;SDS011;5331;48.148;16.326;2022-08-21T04:53:10;2.80;;;2.67;;
10565;SDS011;5331;48.148;16.326;2022-08-21T04:55:40;2.80;;;2.70;;
10565;SDS011;5331;48.148;16.326;2022-08-21T04:58:09;2.60;;;2.50;;
10565;SDS011;5331;48.148;16.326;2022-08-21T05:00:39;2.83;;;2.65;;
10565;SDS011;5331;48.148;16.326;2022-08-21T05:03:08;2.63;;;2.42;;
10565;SDS011;5331;48.148;16.326;2022-08-21T05:05:37;2.63;;;2.53;;
10565;SDS011;5331;48.148;16.326;2022-08-21T05:08:05;2.70;;;2.50;;
10565;SDS011;5331;48.148;16.326;2022-08-21T05:10:34;2.92;;;2.72;;
10565;SDS011;5331;48.148;16.326;2022-08-21T05:13:01;2.92;;;2.80;;
10565;SDS011;5331;48.148;16.326;2022-08-21T05:15:28;2.75;;;2.65;;
10565;SDS011;5331;48.148;16.326;2022-08-21T05:17:56;3.03;;;2.92;;
10565;SDS011;5331;48.148;16.326;2022-08-21T05:20:24;3.30;;;3.10;;
10565;SDS011;5331;48.148;16.326;2022-08-21T05:22:51;3.70;;;3.50;;
10565;SDS011;5331;48.148;16.326;2022-08-21T05:25:18;3.40;;;3.20;;
10565;SDS011;5331;48.148;16.326;2022-08-21T05:27:46;3.50;;;3.30;;
10565;SDS011;5331;48.148;16.326;2022-08-21T05:30:12;3.67;;;3.38;;
10565;SDS011;5331;48.148;16.326;2022-08-21T05:32:39;3.13;;;2.92;;
10565;SDS011;5331;48.148;16.326;2022-08-21T05:35:07;3.65;;;3.40;;
10565;SDS011;5331;48.148;16.326;2022-08-21T05:37:35;3.92;;;3.63;;
10565;SDS011;5331;48.148;16.326;2022-08-21T05:40:03;3.60;;;3.40;;
10565;SDS011;5331;48.148;16.326;2022-08-21T05:42:31;3.80;;;3.60;;
10565;SDS011;5331;48.148;16.326;2022-08-21T05:44:58;3.50;;;3.30;;
10565;SDS011;5331;48.148;16.326;2022-08-21T05:47:25;3.40;;;3.20;;
10565;SDS011;5331;48.148;16.326;2022-08-21T05:49:52;3.38;;;3.17;;
10565;SDS011;5331;48.148;16.326;2022-08-21T05:52:19;3.20;;;3.00;;
10565;SDS011;5331;48.148;16.326;2022-08-21T05:54:48;3.50;;;3.30;;
10565;SDS011;5331;48.148;16.326;2022-08-21T05:57:15;3.58;;;3.28;;
10565;SDS011;5331;48.148;16.326;2022-08-21T05:59:42;3.53;;;3.25;;
10565;SDS011;5331;48.148;16.326;2022-08-21T06:02:09;3.67;;;3.38;;
10565;SDS011;5331;48.148;16.326;2022-08-21T06:04:36;3.50;;;3.30;;
10565;SDS011;5331;48.148;16.326;2022-08-21T06:07:03;3.35;;;3.15;;
10565;SDS011;5331;48.148;16.326;2022-08-21T06:09:31;3.15;;;2.95;;
10565;SDS011;5331;48.148;16.326;2022-08-21T06:12:02;3.22;;;3.03;;
10565;SDS011;5331;48.148;16.326;2022-08-21T06:14:29;3.50;;;3.20;;
10565;SDS011;5331;48.148;16.326;2022-08-21T06:17:00;3.25;;;3.05;;
10565;SDS011;5331;48.148;16.326;2022-08-21T06:19:28;3.10;;;2.90;;
10565;SDS011;5331;48.148;16.326;2022-08-21T06:21:55;3.55;;;3.35;;
10565;SDS011;5331;48.148;16.326;2022-08-21T06:24:22;3.00;;;2.90;;
10565;SDS011;5331;48.148;16.326;2022-08-21T06:26:49;3.30;;;3.10;;
10565;SDS011;5331;48.148;16.326;2022-08-21T06:29:18;3.20;;;3.00;;
10565;SDS011;5331;48.148;16.326;2022-08-21T06:31:45;3.28;;;3.08;;
10565;SDS011;5331;48.148;16.326;2022-08-21T06:34:12;3.47;;;3.28;;
10565;SDS011;5331;48.148;16.326;2022-08-21T06:36:39;3.40;;;3.20;;
10565;SDS011;5331;48.148;16.326;2022-08-21T06:39:06;3.28;;;3.08;;
10565;SDS011;5331;48.148;16.326;2022-08-21T06:41:33;3.30;;;3.10;;
10565;SDS011;5331;48.148;16.326;2022-08-21T06:44:00;3.50;;;3.30;;
10565;SDS011;5331;48.148;16.326;2022-08-21T06:46:29;3.50;;;3.30;;
10565;SDS011;5331;48.148;16.326;2022-08-21T06:48:57;3.45;;;3.25;;
10565;SDS011;5331;48.148;16.326;2022-08-21T06:51:24;3.50;;;3.30;;
10565;SDS011;5331;48.148;16.326;2022-08-21T06:53:51;3.70;;;3.50;;
10565;SDS011;5331;48.148;16.326;2022-08-21T06:56:19;3.40;;;3.20;;
10565;SDS011;5331;48.148;16.326;2022-08-21T06:58:46;3.53;;;3.22;;
10565;SDS011;5331;48.148;16.326;2022-08-21T07:01:13;3.55;;;3.35;;
10565;SDS011;5331;48.148;16.326;2022-08-21T07:03:42;3.60;;;3.40;;
10565;SDS011;5331;48.148;16.326;2022-08-21T07:06:09;3.67;;;3.47;;
10565;SDS011;5331;48.148;16.326;2022-08-21T07:08:37;3.60;;;3.40;;
10565;SDS011;5331;48.148;16.326;2022-08-21T07:11:07;3.65;;;3.45;;
10565;SDS011;5331;48.148;16.326;2022-08-21T07:13:37;3.65;;;3.42;;
10565;SDS011;5331;48.148;16.326;2022-08-21T07:16:04;3.63;;;3.33;;
10565;SDS011;5331;48.148;16.326;2022-08-21T07:18:33;4.07;;;3.78;;
10565;SDS011;5331;48.148;16.326;2022-08-21T07:21:02;4.00;;;3.80;;
10565;SDS011;5331;48.148;16.326;2022-08-21T07:23:31;3.75;;;3.55;;
10565;SDS011;5331;48.148;16.326;2022-08-21T07:26:00;4.50;;;3.60;;
10565;SDS011;5331;48.148;16.326;2022-08-21T07:28:27;3.92;;;3.63;;
10565;SDS011;5331;48.148;16.326;2022-08-21T07:30:56;3.40;;;3.20;;
10565;SDS011;5331;48.148;16.326;2022-08-21T07:33:24;4.30;;;3.90;;
10565;SDS011;5331;48.148;16.326;2022-08-21T07:35:54;3.67;;;3.47;;
10565;SDS011;5331;48.148;16.326;2022-08-21T07:38:22;4.03;;;3.63;;
10565;SDS011;5331;48.148;16.326;2022-08-21T07:40:49;3.95;;;3.70;;
10565;SDS011;5331;48.148;16.326;2022-08-21T07:43:18;3.55;;;3.35;;
10565;SDS011;5331;48.148;16.326;2022-08-21T07:45:46;4.25;;;3.90;;
10565;SDS011;5331;48.148;16.326;2022-08-21T07:48:15;4.05;;;3.75;;
10565;SDS011;5331;48.148;16.326;2022-08-21T07:50:42;4.47;;;4.10;;
10565;SDS011;5331;48.148;16.326;2022-08-21T07:53:09;4.15;;;3.85;;
10565;SDS011;5331;48.148;16.326;2022-08-21T07:55:37;3.92;;;3.63;;
10565;SDS011;5331;48.148;16.326;2022-08-21T07:58:04;4.40;;;4.07;;
10565;SDS011;5331;48.148;16.326;2022-08-21T08:00:32;4.22;;;3.92;;
10565;SDS011;5331;48.148;16.326;2022-08-21T08:02:59;4.40;;;4.10;;
10565;SDS011;5331;48.148;16.326;2022-08-21T08:05:29;4.38;;;4.07;;
10565;SDS011;5331;48.148;16.326;2022-08-21T08:07:57;4.10;;;3.80;;
10565;SDS011;5331;48.148;16.326;2022-08-21T08:10:24;4.40;;;4.10;;
10565;SDS011;5331;48.148;16.326;2022-08-21T08:12:53;3.78;;;3.58;;
10565;SDS011;5331;48.148;16.326;2022-08-21T08:15:21;4.03;;;3.72;;
10565;SDS011;5331;48.148;16.326;2022-08-21T08:17:49;3.90;;;3.60;;
10565;SDS011;5331;48.148;16.326;2022-08-21T08:20:17;3.67;;;3.47;;
10565;SDS011;5331;48.148;16.326;2022-08-21T08:22:45;3.58;;;3.38;;
10565;SDS011;5331;48.148;16.326;2022-08-21T08:25:12;3.75;;;3.55;;
10565;SDS011;5331;48.148;16.326;2022-08-21T08:27:40;3.55;;;3.30;;
10565;SDS011;5331;48.148;16.326;2022-08-21T08:30:10;3.58;;;3.38;;
10565;SDS011;5331;48.148;16.326;2022-08-21T08:32:39;3.80;;;3.60;;
10565;SDS011;5331;48.148;16.326;2022-08-21T08:35:07;3.22;;;3.03;;
10565;SDS011;5331;48.148;16.326;2022-08-21T08:37:35;3.65;;;3.35;;
10565;SDS011;5331;48.148;16.326;2022-08-21T08:40:05;3.30;;;3.00;;
10565;SDS011;5331;48.148;16.326;2022-08-21T08:42:34;3.70;;;3.50;;
10565;SDS011;5331;48.148;16.326;2022-08-21T08:45:03;3.58;;;3.30;;
10565;SDS011;5331;48.148;16.326;2022-08-21T08:47:33;3.30;;;3.10;;
10565;SDS011;5331;48.148;16.326;2022-08-21T08:50:04;3.40;;;3.20;;
10565;SDS011;5331;48.148;16.326;2022-08-21T08:52:33;3.88;;;3.67;;
10565;SDS011;5331;48.148;16.326;2022-08-21T08:55:03;3.75;;;3.47;;
10565;SDS011;5331;48.148;16.326;2022-08-21T08:57:33;3.75;;;3.45;;
10565;SDS011;5331;48.148;16.326;2022-08-21T09:00:04;3.50;;;3.30;;
10565;SDS011;5331;48.148;16.326;2022-08-21T09:02:36;4.20;;;3.90;;
10565;SDS011;5331;48.148;16.326;2022-08-21T09:05:05;3.97;;;3.67;;
10565;SDS011;5331;48.148;16.326;2022-08-21T09:07:35;3.55;;;3.30;;
10565;SDS011;5331;48.148;16.326;2022-08-21T09:10:13;3.95;;;3.65;;
10565;SDS011;5331;48.148;16.326;2022-08-21T09:12:55;3.40;;;3.20;;
10565;SDS011;5331;48.148;16.326;2022-08-21T09:15:30;3.60;;;3.40;;
10565;SDS011;5331;48.148;16.326;2022-08-21T09:18:12;3.72;;;3.42;;
10565;SDS011;5331;48.148;16.326;2022-08-21T09:20:48;3.63;;;3.42;;
10565;SDS011;5331;48.148;16.326;2022-08-21T09:23:25;3.28;;;3.08;;
10565;SDS011;5331;48.148;16.326;2022-08-21T09:26:04;3.20;;;3.00;;
10565;SDS011;5331;48.148;16.326;2022-08-21T09:28:34;3.13;;;2.92;;
10565;SDS011;5331;48.148;16.326;2022-08-21T09:31:02;2.97;;;2.78;;
10565;SDS011;5331;48.148;16.326;2022-08-21T09:33:33;3.10;;;2.90;;
10565;SDS011;5331;48.148;16.326;2022-08-21T09:36:00;3.08;;;2.88;;
10565;SDS011;5331;48.148;16.326;2022-08-21T09:38:29;2.90;;;2.80;;
10565;SDS011;5331;48.148;16.326;2022-08-21T09:40:59;2.80;;;2.67;;
10565;SDS011;5331;48.148;16.326;2022-08-21T09:43:28;2.80;;;2.70;;
10565;SDS011;5331;48.148;16.326;2022-08-21T09:46:07;2.70;;;2.60;;
10565;SDS011;5331;48.148;16.326;2022-08-21T09:48:45;2.80;;;2.70;;
10565;SDS011;5331;48.148;16.326;2022-08-21T09:51:14;2.97;;;2.78;;
10565;SDS011;5331;48.148;16.326;2022-08-21T09:53:43;3.10;;;2.90;;
10565;SDS011;5331;48.148;16.326;2022-08-21T09:56:17;2.67;;;2.58;;
10565;SDS011;5331;48.148;16.326;2022-08-21T09:59:12;3.40;;;3.20;;
10565;SDS011;5331;48.148;16.326;2022-08-21T10:01:43;3.30;;;3.10;;
10565;SDS011;5331;48.148;16.326;2022-08-21T10:04:13;3.30;;;3.10;;
10565;SDS011;5331;48.148;16.326;2022-08-21T10:06:40;3.28;;;3.08;;
10565;SDS011;5331;48.148;16.326;2022-08-21T10:09:08;3.28;;;3.08;;
10565;SDS011;5331;48.148;16.326;2022-08-21T10:11:37;3.35;;;3.15;;
10565;SDS011;5331;48.148;16.326;2022-08-21T10:14:08;3.42;;;3.10;;
10565;SDS011;5331;48.148;16.326;2022-08-21T10:16:45;3.38;;;3.17;;
10565;SDS011;5331;48.148;16.326;2022-08-21T10:19:22;3.40;;;3.10;;
10565;SDS011;5331;48.148;16.326;2022-08-21T10:21:59;3.35;;;3.15;;
10565;SDS011;5331;48.148;16.326;2022-08-21T10:24:33;3.22;;;3.03;;
10565;SDS011;5331;48.148;16.326;2022-08-21T10:27:12;3.60;;;3.40;;
10565;SDS011;5331;48.148;16.326;2022-08-21T10:29:47;3.30;;;3.10;;
10565;SDS011;5331;48.148;16.326;2022-08-21T10:32:24;3.95;;;3.65;;
10565;SDS011;5331;48.148;16.326;2022-08-21T10:35:08;3.83;;;3.63;;
10565;SDS011;5331;48.148;16.326;2022-08-21T10:37:42;3.50;;;3.30;;
10565;SDS011;5331;48.148;16.326;2022-08-21T10:40:20;3.20;;;3.00;;
10565;SDS011;5331;48.148;16.326;2022-08-21T10:42:56;3.17;;;2.97;;
10565;SDS011;5331;48.148;16.326;2022-08-21T10:45:50;3.40;;;3.20;;
10565;SDS011;5331;48.148;16.326;2022-08-21T10:48:24;3.50;;;3.30;;
10565;SDS011;5331;48.148;16.326;2022-08-21T10:50:58;3.60;;;3.40;;
10565;SDS011;5331;48.148;16.326;2022-08-21T10:53:35;3.72;;;3.40;;
10565;SDS011;5331;48.148;16.326;2022-08-21T10:56:10;3.58;;;3.38;;
10565;SDS011;5331;48.148;16.326;2022-08-21T10:58:44;3.80;;;3.60;;
10565;SDS011;5331;48.148;16.326;2022-08-21T11:01:17;3.70;;;3.40;;
10565;SDS011;5331;48.148;16.326;2022-08-21T11:03:53;3.30;;;3.10;;
10565;SDS011;5331;48.148;16.326;2022-08-21T11:06:31;3.25;;;3.05;;
10565;SDS011;5331;48.148;16.326;2022-08-21T11:09:03;3.15;;;2.90;;
10565;SDS011;5331;48.148;16.326;2022-08-21T11:11:36;2.15;;;2.05;;
10565;SDS011;5331;48.148;16.326;2022-08-21T11:14:09;2.25;;;2.13;;
10565;SDS011;5331;48.148;16.326;2022-08-21T11:16:42;2.20;;;2.10;;
10565;SDS011;5331;48.148;16.326;2022-08-21T11:19:13;2.00;;;1.90;;
10565;SDS011;5331;48.148;16.326;2022-08-21T11:21:46;2.10;;;2.00;;
10565;SDS011;5331;48.148;16.326;2022-08-21T11:24:22;1.90;;;1.80;;
10565;SDS011;5331;48.148;16.326;2022-08-21T11:26:57;2.00;;;1.90;;
10565;SDS011;5331;48.148;16.326;2022-08-21T11:29:28;1.90;;;1.80;;
10565;SDS011;5331;48.148;16.326;2022-08-21T11:32:05;2.00;;;1.90;;
10565;SDS011;5331;48.148;16.326;2022-08-21T11:34:51;2.22;;;2.00;;
10565;SDS011;5331;48.148;16.326;2022-08-21T11:37:29;2.00;;;1.90;;
10565;SDS011;5331;48.148;16.326;2022-08-21T11:40:12;1.80;;;1.70;;
10565;SDS011;5331;48.148;16.326;2022-08-21T11:42:50;1.60;;;1.60;;
10565;SDS011;5331;48.148;16.326;2022-08-21T11:45:27;1.88;;;1.77;;
10565;SDS011;5331;48.148;16.326;2022-08-21T11:48:04;1.85;;;1.75;;
10565;SDS011;5331;48.148;16.326;2022-08-21T11:50:39;1.75;;;1.70;;
10565;SDS011;5331;48.148;16.326;2022-08-21T11:53:11;1.80;;;1.70;;
10565;SDS011;5331;48.148;16.326;2022-08-21T11:55:44;1.90;;;1.80;;
10565;SDS011;5331;48.148;16.326;2022-08-21T11:58:16;1.90;;;1.80;;
10565;SDS011;5331;48.148;16.326;2022-08-21T12:00:49;2.20;;;2.10;;
10565;SDS011;5331;48.148;16.326;2022-08-21T12:03:22;2.20;;;2.10;;
10565;SDS011;5331;48.148;16.326;2022-08-21T12:05:53;1.90;;;1.80;;
10565;SDS011;5331;48.148;16.326;2022-08-21T12:08:29;2.03;;;1.92;;
10565;SDS011;5331;48.148;16.326;2022-08-21T12:11:02;1.95;;;1.85;;
10565;SDS011;5331;48.148;16.326;2022-08-21T12:13:32;1.90;;;1.80;;
10565;SDS011;5331;48.148;16.326;2022-08-21T12:16:07;1.60;;;1.60;;
10565;SDS011;5331;48.148;16.326;2022-08-21T12:18:39;2.05;;;1.95;;
10565;SDS011;5331;48.148;16.326;2022-08-21T12:24:16;2.00;;;1.90;;
10565;SDS011;5331;48.148;16.326;2022-08-21T12:26:48;2.08;;;1.95;;
10565;SDS011;5331;48.148;16.326;2022-08-21T12:29:21;2.00;;;1.90;;
10565;SDS011;5331;48.148;16.326;2022-08-21T12:31:51;2.10;;;2.00;;
10565;SDS011;5331;48.148;16.326;2022-08-21T12:34:21;2.20;;;2.10;;
10565;SDS011;5331;48.148;16.326;2022-08-21T12:36:53;2.10;;;2.00;;
10565;SDS011;5331;48.148;16.326;2022-08-21T12:39:26;2.10;;;2.00;;
10565;SDS011;5331;48.148;16.326;2022-08-21T12:41:58;2.33;;;2.20;;
10565;SDS011;5331;48.148;16.326;2022-08-21T12:44:33;2.35;;;2.15;;
10565;SDS011;5331;48.148;16.326;2022-08-21T12:47:12;2.10;;;2.00;;
10565;SDS011;5331;48.148;16.326;2022-08-21T12:49:45;2.05;;;1.95;;
10565;SDS011;5331;48.148;16.326;2022-08-21T12:52:20;2.20;;;2.10;;
10565;SDS011;5331;48.148;16.326;2022-08-21T12:54:50;2.30;;;2.20;;
10565;SDS011;5331;48.148;16.326;2022-08-21T12:57:19;2.25;;;2.15;;
10565;SDS011;5331;48.148;16.326;2022-08-21T12:59:55;2.60;;;2.47;;
10565;SDS011;5331;48.148;16.326;2022-08-21T13:02:24;2.40;;;2.30;;
10565;SDS011;5331;48.148;16.326;2022-08-21T13:04:54;2.63;;;2.53;;
10565;SDS011;5331;48.148;16.326;2022-08-21T13:07:24;2.45;;;2.35;;
10565;SDS011;5331;48.148;16.326;2022-08-21T13:09:57;2.42;;;2.33;;
10565;SDS011;5331;48.148;16.326;2022-08-21T13:12:26;2.30;;;2.20;;
10565;SDS011;5331;48.148;16.326;2022-08-21T13:14:55;2.55;;;2.45;;
10565;SDS011;5331;48.148;16.326;2022-08-21T13:17:24;2.42;;;2.22;;
10565;SDS011;5331;48.148;16.326;2022-08-21T13:19:53;2.45;;;2.35;;
10565;SDS011;5331;48.148;16.326;2022-08-21T13:22:21;3.63;;;3.08;;
10565;SDS011;5331;48.148;16.326;2022-08-21T13:24:48;2.60;;;2.50;;
10565;SDS011;5331;48.148;16.326;2022-08-21T13:27:20;2.60;;;2.50;;
10565;SDS011;5331;48.148;16.326;2022-08-21T13:29:49;2.70;;;2.50;;
10565;SDS011;5331;48.148;16.326;2022-08-21T13:32:28;3.00;;;2.80;;
10565;SDS011;5331;48.148;16.326;2022-08-21T13:34:59;2.90;;;2.70;;
10565;SDS011;5331;48.148;16.326;2022-08-21T13:37:37;3.03;;;2.83;;
10565;SDS011;5331;48.148;16.326;2022-08-21T13:40:06;3.22;;;3.03;;
10565;SDS011;5331;48.148;16.326;2022-08-21T13:42:39;2.80;;;2.60;;
10565;SDS011;5331;48.148;16.326;2022-08-21T13:45:11;3.10;;;2.90;;
10565;SDS011;5331;48.148;16.326;2022-08-21T13:47:44;3.47;;;3.10;;
10565;SDS011;5331;48.148;16.326;2022-08-21T13:50:13;3.30;;;3.08;;
10565;SDS011;5331;48.148;16.326;2022-08-21T13:52:53;2.90;;;2.70;;
10565;SDS011;5331;48.148;16.326;2022-08-21T13:55:24;2.90;;;2.70;;
10565;SDS011;5331;48.148;16.326;2022-08-21T13:58:02;2.83;;;2.72;;
10565;SDS011;5331;48.148;16.326;2022-08-21T14:00:31;3.00;;;2.80;;
10565;SDS011;5331;48.148;16.326;2022-08-21T14:03:04;3.10;;;2.90;;
10565;SDS011;5331;48.148;16.326;2022-08-21T14:05:34;3.20;;;3.00;;
10565;SDS011;5331;48.148;16.326;2022-08-21T14:08:04;3.50;;;3.30;;
10565;SDS011;5331;48.148;16.326;2022-08-21T14:10:35;3.20;;;3.00;;
10565;SDS011;5331;48.148;16.326;2022-08-21T14:13:20;3.22;;;3.03;;
10565;SDS011;5331;48.148;16.326;2022-08-21T14:15:56;3.10;;;2.85;;
10565;SDS011;5331;48.148;16.326;2022-08-21T14:18:24;3.13;;;2.90;;
10565;SDS011;5331;48.148;16.326;2022-08-21T14:20:51;3.40;;;3.20;;
10565;SDS011;5331;48.148;16.326;2022-08-21T14:23:29;3.13;;;2.80;;
10565;SDS011;5331;48.148;16.326;2022-08-21T14:25:58;3.20;;;3.00;;
10565;SDS011;5331;48.148;16.326;2022-08-21T14:28:29;3.25;;;2.95;;
10565;SDS011;5331;48.148;16.326;2022-08-21T14:30:58;5.78;;;3.20;;
10565;SDS011;5331;48.148;16.326;2022-08-21T14:33:38;3.10;;;2.90;;
10565;SDS011;5331;48.148;16.326;2022-08-21T14:36:05;3.30;;;3.10;;
10565;SDS011;5331;48.148;16.326;2022-08-21T14:38:34;3.20;;;2.90;;
10565;SDS011;5331;48.148;16.326;2022-08-21T14:41:03;3.70;;;2.92;;
10565;SDS011;5331;48.148;16.326;2022-08-21T14:43:36;3.50;;;3.20;;
10565;SDS011;5331;48.148;16.326;2022-08-21T14:46:03;3.38;;;3.08;;
10565;SDS011;5331;48.148;16.326;2022-08-21T14:48:30;3.05;;;2.85;;
10565;SDS011;5331;48.148;16.326;2022-08-21T14:50:57;3.45;;;3.15;;
10565;SDS011;5331;48.148;16.326;2022-08-21T14:53:24;3.47;;;2.97;;
10565;SDS011;5331;48.148;16.326;2022-08-21T14:55:51;3.15;;;2.95;;
10565;SDS011;5331;48.148;16.326;2022-08-21T14:58:42;3.08;;;2.80;;
10565;SDS011;5331;48.148;16.326;2022-08-21T15:01:12;3.03;;;2.83;;
10565;SDS011;5331;48.148;16.326;2022-08-21T15:03:41;3.20;;;3.00;;
10565;SDS011;5331;48.148;16.326;2022-08-21T15:06:08;3.20;;;2.90;;
10565;SDS011;5331;48.148;16.326;2022-08-21T15:08:35;3.53;;;3.13;;